KNYG/NYG METAR and TAF weather

Enter ICAO airport designator
Station Type Date Time Source
KNYG METAR 2019/02/23 22:56 UTC NOAA

KNYG 232256Z AUTO 01010KT 2 1/2SM -RA BR OVC010 04/03 A3027 RMK AO2 RAE17B47 CIG 006V014 SLP251 P0002 T00390033 $


Station Type Date Time Source
KNYG Decoded METAR 2019/02/23 22:56 UTC NOAA

QUANTICO MARINE CORPS AIRFAC, VA, United States (KNYG) 38-30N 077-18W 3M
Feb 23, 2019 - 05:56 PM EST / 2019.02.23 2256 UTC
Wind: from the N (010 degrees) at 12 MPH (10 KT):0
Visibility: 2 1/2 mile(s):0
Sky conditions: overcast
Weather: light rain; mist
Precipitation last hour: 0.02 inches
Temperature: 39.0 F (3.9 C)
Dew Point: 37.9 F (3.3 C)
Relative Humidity: 95%
Pressure (altimeter): 30.27 in. Hg (1025 hPa)
ob: KNYG 232256Z AUTO 01010KT 2 1/2SM -RA BR OVC010 04/03 A3027 RMK AO2 RAE17B47 CIG 006V014 SLP251 P0002 T00390033
cycle: 23

Station Type Date Time Source
KNYG TAF 2019/02/23 21:07 UTC NOAA

TAF KNYG 2321/2421 12009KT 9999 -RA BKN009 BKN013 OVC023 QNH3021INS
TEMPO 2321/2401 6000 SHRA BKN008 OVC020
FM240100 14006KT 6000 -SHRA BR OVC008 QNH3000INS
TEMPO 2402/2405 2400 +SHRA OVC004
FM240600 VRB06KT 2400 -SHRA BR OVC004 QNH2976INS
BECMG 2410/2412 21010KT 3200 BR OVC007 QNH2973INS
TEMPO 2412/2415 -SHRA OVC007
FM241500 19010KT 2400 BR OVC004 QNH2950INS T04/2321Z T11/2415Z


Example: see airport list